sensor_id;sensor_type;location;lat;lon;timestamp;temperature;humidity
15384;DHT22;7790;53.022;12.968;2022-09-12T00:01:39;20.70;57.80
15384;DHT22;7790;53.022;12.968;2022-09-12T00:05:41;20.70;57.30
15384;DHT22;7790;53.022;12.968;2022-09-12T00:09:43;20.70;57.30
15384;DHT22;7790;53.022;12.968;2022-09-12T00:13:44;20.70;57.30
15384;DHT22;7790;53.022;12.968;2022-09-12T00:17:45;20.70;57.30
15384;DHT22;7790;53.022;12.968;2022-09-12T00:21:45;20.70;57.30
15384;DHT22;7790;53.022;12.968;2022-09-12T00:25:47;20.70;57.30
15384;DHT22;7790;53.022;12.968;2022-09-12T00:29:48;20.70;57.30
15384;DHT22;7790;53.022;12.968;2022-09-12T00:33:50;20.70;57.30
15384;DHT22;7790;53.022;12.968;2022-09-12T00:37:50;20.60;57.20
15384;DHT22;7790;53.022;12.968;2022-09-12T00:41:51;20.60;57.20
15384;DHT22;7790;53.022;12.968;2022-09-12T00:45:52;20.60;57.20
15384;DHT22;7790;53.022;12.968;2022-09-12T00:54:05;20.60;57.20
15384;DHT22;7790;53.022;12.968;2022-09-12T00:58:19;20.60;57.10
15384;DHT22;7790;53.022;12.968;2022-09-12T01:02:22;20.60;57.10
15384;DHT22;7790;53.022;12.968;2022-09-12T01:06:34;20.60;57.00
15384;DHT22;7790;53.022;12.968;2022-09-12T01:10:37;20.60;57.00
15384;DHT22;7790;53.022;12.968;2022-09-12T01:14:39;20.60;57.00
15384;DHT22;7790;53.022;12.968;2022-09-12T01:19:24;20.60;57.00
15384;DHT22;7790;53.022;12.968;2022-09-12T01:24:01;20.60;56.90
15384;DHT22;7790;53.022;12.968;2022-09-12T01:41:25;20.50;57.60
15384;DHT22;7790;53.022;12.968;2022-09-12T01:45:38;20.50;58.10
15384;DHT22;7790;53.022;12.968;2022-09-12T01:54:01;20.50;58.60
15384;DHT22;7790;53.022;12.968;2022-09-12T01:58:11;20.50;58.60
15384;DHT22;7790;53.022;12.968;2022-09-12T02:02:17;20.50;58.50
15384;DHT22;7790;53.022;12.968;2022-09-12T02:06:32;20.50;58.70
15384;DHT22;7790;53.022;12.968;2022-09-12T02:11:06;20.50;58.50
15384;DHT22;7790;53.022;12.968;2022-09-12T02:15:08;20.40;58.50
15384;DHT22;7790;53.022;12.968;2022-09-12T02:19:14;20.40;58.50
15384;DHT22;7790;53.022;12.968;2022-09-12T02:23:28;20.40;58.40
15384;DHT22;7790;53.022;12.968;2022-09-12T02:27:47;20.40;58.20
15384;DHT22;7790;53.022;12.968;2022-09-12T02:31:56;20.40;58.20
15384;DHT22;7790;53.022;12.968;2022-09-12T02:36:22;20.40;58.20
15384;DHT22;7790;53.022;12.968;2022-09-12T02:40:24;20.40;58.10
15384;DHT22;7790;53.022;12.968;2022-09-12T02:44:26;20.40;58.00
15384;DHT22;7790;53.022;12.968;2022-09-12T02:48:30;20.40;57.90
15384;DHT22;7790;53.022;12.968;2022-09-12T02:52:34;20.40;57.80
15384;DHT22;7790;53.022;12.968;2022-09-12T02:56:40;20.40;57.80
15384;DHT22;7790;53.022;12.968;2022-09-12T03:00:49;20.40;57.70
15384;DHT22;7790;53.022;12.968;2022-09-12T03:05:30;20.30;57.60
15384;DHT22;7790;53.022;12.968;2022-09-12T03:18:50;20.30;57.20
15384;DHT22;7790;53.022;12.968;2022-09-12T03:22:55;20.30;57.20
15384;DHT22;7790;53.022;12.968;2022-09-12T03:31:30;20.30;57.20
15384;DHT22;7790;53.022;12.968;2022-09-12T03:35:31;20.30;57.30
15384;DHT22;7790;53.022;12.968;2022-09-12T03:39:32;20.30;57.10
15384;DHT22;7790;53.022;12.968;2022-09-12T03:43:33;20.30;57.20
15384;DHT22;7790;53.022;12.968;2022-09-12T03:47:34;20.30;57.10
15384;DHT22;7790;53.022;12.968;2022-09-12T03:51:36;20.30;57.10
15384;DHT22;7790;53.022;12.968;2022-09-12T03:55:38;20.30;57.20
15384;DHT22;7790;53.022;12.968;2022-09-12T03:59:39;20.30;57.30
15384;DHT22;7790;53.022;12.968;2022-09-12T04:03:44;20.30;57.20
15384;DHT22;7790;53.022;12.968;2022-09-12T04:07:45;20.30;57.10
15384;DHT22;7790;53.022;12.968;2022-09-12T04:11:45;20.30;57.20
15384;DHT22;7790;53.022;12.968;2022-09-12T04:15:55;20.30;57.10
15384;DHT22;7790;53.022;12.968;2022-09-12T04:19:56;20.30;57.10
15384;DHT22;7790;53.022;12.968;2022-09-12T04:23:57;20.30;57.10
15384;DHT22;7790;53.022;12.968;2022-09-12T04:27:58;20.30;57.10
15384;DHT22;7790;53.022;12.968;2022-09-12T04:31:58;20.20;57.30
15384;DHT22;7790;53.022;12.968;2022-09-12T04:36:11;20.30;57.20
15384;DHT22;7790;53.022;12.968;2022-09-12T04:40:16;20.20;57.10
15384;DHT22;7790;53.022;12.968;2022-09-12T04:44:17;20.30;57.10
15384;DHT22;7790;53.022;12.968;2022-09-12T04:48:18;20.20;57.30
15384;DHT22;7790;53.022;12.968;2022-09-12T04:52:19;20.30;57.60
15384;DHT22;7790;53.022;12.968;2022-09-12T04:56:20;20.30;57.70
15384;DHT22;7790;53.022;12.968;2022-09-12T05:00:21;20.30;57.80
15384;DHT22;7790;53.022;12.968;2022-09-12T05:04:22;20.30;58.00
15384;DHT22;7790;53.022;12.968;2022-09-12T05:08:22;20.30;58.40
15384;DHT22;7790;53.022;12.968;2022-09-12T05:12:23;20.30;58.40
15384;DHT22;7790;53.022;12.968;2022-09-12T05:16:25;20.30;58.30
15384;DHT22;7790;53.022;12.968;2022-09-12T05:20:27;20.30;58.50
15384;DHT22;7790;53.022;12.968;2022-09-12T05:24:28;20.30;58.50
15384;DHT22;7790;53.022;12.968;2022-09-12T05:28:32;20.30;58.50
15384;DHT22;7790;53.022;12.968;2022-09-12T05:32:33;20.30;58.50
15384;DHT22;7790;53.022;12.968;2022-09-12T05:36:35;20.30;58.30
15384;DHT22;7790;53.022;12.968;2022-09-12T05:40:36;20.30;58.40
15384;DHT22;7790;53.022;12.968;2022-09-12T05:44:37;20.30;58.40
15384;DHT22;7790;53.022;12.968;2022-09-12T05:48:39;20.30;58.60
15384;DHT22;7790;53.022;12.968;2022-09-12T05:52:40;20.30;58.20
15384;DHT22;7790;53.022;12.968;2022-09-12T05:56:42;20.30;58.20
15384;DHT22;7790;53.022;12.968;2022-09-12T06:00:43;20.40;57.90
15384;DHT22;7790;53.022;12.968;2022-09-12T06:04:45;20.30;58.00
15384;DHT22;7790;53.022;12.968;2022-09-12T06:13:03;20.30;58.10
15384;DHT22;7790;53.022;12.968;2022-09-12T06:17:03;20.30;58.10
15384;DHT22;7790;53.022;12.968;2022-09-12T06:21:10;20.40;58.20
15384;DHT22;7790;53.022;12.968;2022-09-12T06:25:11;20.40;58.20
15384;DHT22;7790;53.022;12.968;2022-09-12T06:29:13;20.40;58.20
15384;DHT22;7790;53.022;12.968;2022-09-12T06:33:14;20.40;58.20
15384;DHT22;7790;53.022;12.968;2022-09-12T06:37:15;20.40;58.20
15384;DHT22;7790;53.022;12.968;2022-09-12T06:41:16;20.40;58.20
15384;DHT22;7790;53.022;12.968;2022-09-12T06:45:16;20.40;58.20
15384;DHT22;7790;53.022;12.968;2022-09-12T06:49:19;20.40;58.20
15384;DHT22;7790;53.022;12.968;2022-09-12T06:53:20;20.40;58.20
15384;DHT22;7790;53.022;12.968;2022-09-12T06:57:21;20.40;58.10
15384;DHT22;7790;53.022;12.968;2022-09-12T07:01:27;20.40;58.20
15384;DHT22;7790;53.022;12.968;2022-09-12T07:05:28;20.40;58.20
15384;DHT22;7790;53.022;12.968;2022-09-12T07:09:28;20.50;58.30
15384;DHT22;7790;53.022;12.968;2022-09-12T07:13:30;20.50;58.20
15384;DHT22;7790;53.022;12.968;2022-09-12T07:17:31;20.50;58.20
15384;DHT22;7790;53.022;12.968;2022-09-12T07:21:32;20.50;58.10
15384;DHT22;7790;53.022;12.968;2022-09-12T07:25:36;20.50;58.10
15384;DHT22;7790;53.022;12.968;2022-09-12T07:29:37;20.50;58.10
15384;DHT22;7790;53.022;12.968;2022-09-12T07:33:39;20.50;58.20
15384;DHT22;7790;53.022;12.968;2022-09-12T07:37:40;20.50;58.20
15384;DHT22;7790;53.022;12.968;2022-09-12T07:41:40;20.50;58.20
15384;DHT22;7790;53.022;12.968;2022-09-12T07:45:41;20.60;58.30
15384;DHT22;7790;53.022;12.968;2022-09-12T07:49:42;20.60;58.30
15384;DHT22;7790;53.022;12.968;2022-09-12T07:53:44;20.60;58.40
15384;DHT22;7790;53.022;12.968;2022-09-12T07:57:48;20.60;58.20
15384;DHT22;7790;53.022;12.968;2022-09-12T08:01:50;20.70;58.20
15384;DHT22;7790;53.022;12.968;2022-09-12T08:05:51;20.70;58.00
15384;DHT22;7790;53.022;12.968;2022-09-12T08:09:52;20.80;58.10
15384;DHT22;7790;53.022;12.968;2022-09-12T08:13:54;20.80;58.20
15384;DHT22;7790;53.022;12.968;2022-09-12T08:17:56;20.80;58.10
15384;DHT22;7790;53.022;12.968;2022-09-12T08:21:57;20.90;58.00
15384;DHT22;7790;53.022;12.968;2022-09-12T08:25:59;20.90;58.10
15384;DHT22;7790;53.022;12.968;2022-09-12T08:30:01;21.00;58.10
15384;DHT22;7790;53.022;12.968;2022-09-12T08:34:03;21.00;58.00
15384;DHT22;7790;53.022;12.968;2022-09-12T08:38:05;21.10;58.00
15384;DHT22;7790;53.022;12.968;2022-09-12T08:42:06;21.10;57.90
15384;DHT22;7790;53.022;12.968;2022-09-12T08:50:31;21.20;57.90
15384;DHT22;7790;53.022;12.968;2022-09-12T08:54:32;21.20;57.80
15384;DHT22;7790;53.022;12.968;2022-09-12T08:58:38;21.20;57.80
15384;DHT22;7790;53.022;12.968;2022-09-12T09:02:57;21.30;57.80
15384;DHT22;7790;53.022;12.968;2022-09-12T09:24:12;21.40;57.90
15384;DHT22;7790;53.022;12.968;2022-09-12T09:28:19;21.40;57.90
15384;DHT22;7790;53.022;12.968;2022-09-12T09:32:27;21.40;57.80
15384;DHT22;7790;53.022;12.968;2022-09-12T09:45:23;21.70;57.30
15384;DHT22;7790;53.022;12.968;2022-09-12T09:49:28;21.70;57.30
15384;DHT22;7790;53.022;12.968;2022-09-12T09:53:57;21.70;57.20
15384;DHT22;7790;53.022;12.968;2022-09-12T09:58:00;21.70;57.40
15384;DHT22;7790;53.022;12.968;2022-09-12T10:02:20;21.60;57.40
15384;DHT22;7790;53.022;12.968;2022-09-12T10:06:27;21.60;57.40
15384;DHT22;7790;53.022;12.968;2022-09-12T10:10:30;21.60;57.30
15384;DHT22;7790;53.022;12.968;2022-09-12T10:14:39;21.70;57.00
15384;DHT22;7790;53.022;12.968;2022-09-12T10:18:41;21.70;57.10
15384;DHT22;7790;53.022;12.968;2022-09-12T10:22:46;21.80;56.90
15384;DHT22;7790;53.022;12.968;2022-09-12T10:26:54;21.80;56.80
15384;DHT22;7790;53.022;12.968;2022-09-12T10:30:56;21.80;56.80
15384;DHT22;7790;53.022;12.968;2022-09-12T10:35:06;21.80;56.90
15384;DHT22;7790;53.022;12.968;2022-09-12T10:39:16;21.90;56.90
15384;DHT22;7790;53.022;12.968;2022-09-12T10:43:26;21.80;57.00
15384;DHT22;7790;53.022;12.968;2022-09-12T10:47:30;21.80;57.00
15384;DHT22;7790;53.022;12.968;2022-09-12T10:51:31;21.80;57.10
15384;DHT22;7790;53.022;12.968;2022-09-12T10:55:33;21.80;57.10
15384;DHT22;7790;53.022;12.968;2022-09-12T11:16:57;21.90;57.30
15384;DHT22;7790;53.022;12.968;2022-09-12T11:25:30;21.90;57.30
15384;DHT22;7790;53.022;12.968;2022-09-12T11:33:45;21.90;57.80
15384;DHT22;7790;53.022;12.968;2022-09-12T11:42:32;21.90;57.30
15384;DHT22;7790;53.022;12.968;2022-09-12T11:46:37;21.90;57.50
15384;DHT22;7790;53.022;12.968;2022-09-12T11:50:38;21.90;57.50
15384;DHT22;7790;53.022;12.968;2022-09-12T11:54:46;21.90;57.20
15384;DHT22;7790;53.022;12.968;2022-09-12T11:58:53;21.80;55.80
15384;DHT22;7790;53.022;12.968;2022-09-12T12:07:09;21.60;56.30
15384;DHT22;7790;53.022;12.968;2022-09-12T12:11:13;21.70;56.30
15384;DHT22;7790;53.022;12.968;2022-09-12T12:15:15;21.60;56.40
15384;DHT22;7790;53.022;12.968;2022-09-12T12:23:34;21.60;56.30
15384;DHT22;7790;53.022;12.968;2022-09-12T12:27:54;21.50;56.00
15384;DHT22;7790;53.022;12.968;2022-09-12T12:40:08;21.50;55.90
15384;DHT22;7790;53.022;12.968;2022-09-12T12:53:00;21.50;56.30
15384;DHT22;7790;53.022;12.968;2022-09-12T13:01:17;21.50;56.50
15384;DHT22;7790;53.022;12.968;2022-09-12T13:05:20;21.50;56.50
15384;DHT22;7790;53.022;12.968;2022-09-12T13:10:04;21.50;56.60
15384;DHT22;7790;53.022;12.968;2022-09-12T13:14:01;21.50;56.60
15384;DHT22;7790;53.022;12.968;2022-09-12T13:18:15;21.50;56.70
15384;DHT22;7790;53.022;12.968;2022-09-12T13:22:21;21.50;56.70
15384;DHT22;7790;53.022;12.968;2022-09-12T13:26:23;21.50;56.70
15384;DHT22;7790;53.022;12.968;2022-09-12T13:30:26;21.50;56.60
15384;DHT22;7790;53.022;12.968;2022-09-12T13:34:30;21.50;56.60
15384;DHT22;7790;53.022;12.968;2022-09-12T13:42:47;21.50;56.60
15384;DHT22;7790;53.022;12.968;2022-09-12T13:46:49;21.50;56.60
15384;DHT22;7790;53.022;12.968;2022-09-12T13:50:56;21.50;56.50
15384;DHT22;7790;53.022;12.968;2022-09-12T13:54:58;21.60;56.60
15384;DHT22;7790;53.022;12.968;2022-09-12T13:59:01;21.60;56.50
15384;DHT22;7790;53.022;12.968;2022-09-12T14:03:25;21.60;56.50
15384;DHT22;7790;53.022;12.968;2022-09-12T14:07:56;21.60;56.50
15384;DHT22;7790;53.022;12.968;2022-09-12T14:11:58;21.60;56.50
15384;DHT22;7790;53.022;12.968;2022-09-12T14:15:59;21.60;56.50
15384;DHT22;7790;53.022;12.968;2022-09-12T14:20:06;21.60;56.40
15384;DHT22;7790;53.022;12.968;2022-09-12T14:24:09;21.60;56.40
15384;DHT22;7790;53.022;12.968;2022-09-12T14:28:15;21.60;56.40
15384;DHT22;7790;53.022;12.968;2022-09-12T14:32:23;21.60;56.40
15384;DHT22;7790;53.022;12.968;2022-09-12T14:40:48;21.60;56.40
15384;DHT22;7790;53.022;12.968;2022-09-12T14:44:59;21.60;56.30
15384;DHT22;7790;53.022;12.968;2022-09-12T14:49:05;21.60;56.40
15384;DHT22;7790;53.022;12.968;2022-09-12T15:01:30;21.60;56.30
15384;DHT22;7790;53.022;12.968;2022-09-12T15:05:30;21.60;56.30
15384;DHT22;7790;53.022;12.968;2022-09-12T15:09:31;21.60;56.30
15384;DHT22;7790;53.022;12.968;2022-09-12T15:13:39;21.60;56.30
15384;DHT22;7790;53.022;12.968;2022-09-12T15:17:41;21.60;56.30
15384;DHT22;7790;53.022;12.968;2022-09-12T15:21:42;21.50;56.20
15384;DHT22;7790;53.022;12.968;2022-09-12T15:25:42;21.60;56.30
15384;DHT22;7790;53.022;12.968;2022-09-12T15:29:43;21.60;56.30
15384;DHT22;7790;53.022;12.968;2022-09-12T15:33:44;21.60;56.30
15384;DHT22;7790;53.022;12.968;2022-09-12T15:37:45;21.50;56.20
15384;DHT22;7790;53.022;12.968;2022-09-12T15:41:46;21.60;56.30
15384;DHT22;7790;53.022;12.968;2022-09-12T15:45:49;21.50;56.30
15384;DHT22;7790;53.022;12.968;2022-09-12T15:49:51;21.50;56.20
15384;DHT22;7790;53.022;12.968;2022-09-12T15:53:52;21.50;56.20
15384;DHT22;7790;53.022;12.968;2022-09-12T15:57:53;21.50;56.70
15384;DHT22;7790;53.022;12.968;2022-09-12T16:01:53;21.50;56.40
15384;DHT22;7790;53.022;12.968;2022-09-12T16:06:00;21.50;56.60
15384;DHT22;7790;53.022;12.968;2022-09-12T16:10:01;21.50;56.50
15384;DHT22;7790;53.022;12.968;2022-09-12T16:14:04;21.50;56.50
15384;DHT22;7790;53.022;12.968;2022-09-12T16:18:04;21.50;56.50
15384;DHT22;7790;53.022;12.968;2022-09-12T16:22:06;21.50;56.50
15384;DHT22;7790;53.022;12.968;2022-09-12T16:26:06;21.50;56.50
15384;DHT22;7790;53.022;12.968;2022-09-12T16:30:08;21.50;56.50
15384;DHT22;7790;53.022;12.968;2022-09-12T16:34:10;21.50;56.50
15384;DHT22;7790;53.022;12.968;2022-09-12T16:38:10;21.50;56.60
15384;DHT22;7790;53.022;12.968;2022-09-12T16:42:11;21.50;56.60
15384;DHT22;7790;53.022;12.968;2022-09-12T16:46:15;21.50;56.60
15384;DHT22;7790;53.022;12.968;2022-09-12T16:50:16;21.50;56.60
15384;DHT22;7790;53.022;12.968;2022-09-12T16:54:17;21.50;56.60
15384;DHT22;7790;53.022;12.968;2022-09-12T16:58:18;21.50;56.70
15384;DHT22;7790;53.022;12.968;2022-09-12T17:02:18;21.40;56.60
15384;DHT22;7790;53.022;12.968;2022-09-12T17:06:23;21.50;56.70
15384;DHT22;7790;53.022;12.968;2022-09-12T17:10:24;21.40;56.70
15384;DHT22;7790;53.022;12.968;2022-09-12T17:14:26;21.40;56.80
15384;DHT22;7790;53.022;12.968;2022-09-12T17:18:27;21.40;56.80
15384;DHT22;7790;53.022;12.968;2022-09-12T17:22:28;21.40;56.80
15384;DHT22;7790;53.022;12.968;2022-09-12T17:26:29;21.40;56.80
15384;DHT22;7790;53.022;12.968;2022-09-12T17:30:34;21.40;56.80
15384;DHT22;7790;53.022;12.968;2022-09-12T17:34:35;21.40;57.00
15384;DHT22;7790;53.022;12.968;2022-09-12T17:38:37;21.40;57.10
15384;DHT22;7790;53.022;12.968;2022-09-12T17:42:39;21.40;57.20
15384;DHT22;7790;53.022;12.968;2022-09-12T17:46:40;21.40;57.20
15384;DHT22;7790;53.022;12.968;2022-09-12T17:50:41;21.40;57.40
15384;DHT22;7790;53.022;12.968;2022-09-12T17:54:42;21.40;57.50
15384;DHT22;7790;53.022;12.968;2022-09-12T17:58:43;21.40;57.60
15384;DHT22;7790;53.022;12.968;2022-09-12T18:02:44;21.40;57.60
15384;DHT22;7790;53.022;12.968;2022-09-12T18:06:46;21.40;57.60
15384;DHT22;7790;53.022;12.968;2022-09-12T18:10:50;21.40;57.60
15384;DHT22;7790;53.022;12.968;2022-09-12T18:14:51;21.40;57.60
15384;DHT22;7790;53.022;12.968;2022-09-12T18:18:53;21.40;57.70
15384;DHT22;7790;53.022;12.968;2022-09-12T18:22:54;21.40;57.70
15384;DHT22;7790;53.022;12.968;2022-09-12T18:26:54;21.40;57.80
15384;DHT22;7790;53.022;12.968;2022-09-12T18:30:58;21.40;57.80
15384;DHT22;7790;53.022;12.968;2022-09-12T18:34:59;21.40;57.80
15384;DHT22;7790;53.022;12.968;2022-09-12T18:38:59;21.40;57.80
15384;DHT22;7790;53.022;12.968;2022-09-12T18:43:00;21.40;57.80
15384;DHT22;7790;53.022;12.968;2022-09-12T18:47:01;21.40;57.90
15384;DHT22;7790;53.022;12.968;2022-09-12T18:51:12;21.40;57.90
15384;DHT22;7790;53.022;12.968;2022-09-12T18:55:17;21.40;58.40
15384;DHT22;7790;53.022;12.968;2022-09-12T18:59:18;21.40;57.90
15384;DHT22;7790;53.022;12.968;2022-09-12T19:03:19;21.40;57.90
15384;DHT22;7790;53.022;12.968;2022-09-12T19:07:20;21.40;57.90
15384;DHT22;7790;53.022;12.968;2022-09-12T19:11:23;21.40;57.90
15384;DHT22;7790;53.022;12.968;2022-09-12T19:15:24;21.30;58.00
15384;DHT22;7790;53.022;12.968;2022-09-12T19:19:24;21.30;58.00
15384;DHT22;7790;53.022;12.968;2022-09-12T19:23:25;21.40;58.10
15384;DHT22;7790;53.022;12.968;2022-09-12T19:27:27;21.40;58.10
15384;DHT22;7790;53.022;12.968;2022-09-12T19:31:28;21.40;58.10
15384;DHT22;7790;53.022;12.968;2022-09-12T19:35:29;21.40;58.10
15384;DHT22;7790;53.022;12.968;2022-09-12T19:39:30;21.40;58.10
15384;DHT22;7790;53.022;12.968;2022-09-12T19:43:31;21.30;58.10
15384;DHT22;7790;53.022;12.968;2022-09-12T19:47:32;21.40;58.00
15384;DHT22;7790;53.022;12.968;2022-09-12T19:51:33;21.30;58.10
15384;DHT22;7790;53.022;12.968;2022-09-12T19:55:34;21.30;58.10
15384;DHT22;7790;53.022;12.968;2022-09-12T19:59:35;21.30;58.00
15384;DHT22;7790;53.022;12.968;2022-09-12T20:03:36;21.30;58.10
15384;DHT22;7790;53.022;12.968;2022-09-12T20:07:37;21.30;58.00
15384;DHT22;7790;53.022;12.968;2022-09-12T20:11:38;21.30;58.00
15384;DHT22;7790;53.022;12.968;2022-09-12T20:15:39;21.30;58.00
15384;DHT22;7790;53.022;12.968;2022-09-12T20:19:40;21.30;58.00
15384;DHT22;7790;53.022;12.968;2022-09-12T20:23:41;21.30;58.00
15384;DHT22;7790;53.022;12.968;2022-09-12T20:27:42;21.30;58.00
15384;DHT22;7790;53.022;12.968;2022-09-12T20:31:43;21.30;58.00
15384;DHT22;7790;53.022;12.968;2022-09-12T20:35:44;21.30;58.00
15384;DHT22;7790;53.022;12.968;2022-09-12T20:39:45;21.30;57.90
15384;DHT22;7790;53.022;12.968;2022-09-12T20:43:50;21.30;57.90
15384;DHT22;7790;53.022;12.968;2022-09-12T20:47:51;21.20;57.90
15384;DHT22;7790;53.022;12.968;2022-09-12T20:51:52;21.20;57.80
15384;DHT22;7790;53.022;12.968;2022-09-12T20:55:53;21.20;57.80
15384;DHT22;7790;53.022;12.968;2022-09-12T20:59:54;21.20;57.80
15384;DHT22;7790;53.022;12.968;2022-09-12T21:03:55;21.20;57.80
15384;DHT22;7790;53.022;12.968;2022-09-12T21:07:56;21.20;57.70
15384;DHT22;7790;53.022;12.968;2022-09-12T21:11:56;21.20;57.70
15384;DHT22;7790;53.022;12.968;2022-09-12T21:16:17;21.10;57.70
15384;DHT22;7790;53.022;12.968;2022-09-12T21:20:18;21.10;57.70
15384;DHT22;7790;53.022;12.968;2022-09-12T21:24:19;21.10;57.70
15384;DHT22;7790;53.022;12.968;2022-09-12T21:32:43;21.10;57.70
15384;DHT22;7790;53.022;12.968;2022-09-12T21:36:44;21.10;57.70
15384;DHT22;7790;53.022;12.968;2022-09-12T21:40:45;21.10;57.60
15384;DHT22;7790;53.022;12.968;2022-09-12T21:44:47;21.10;57.60
15384;DHT22;7790;53.022;12.968;2022-09-12T21:48:48;21.00;57.60
15384;DHT22;7790;53.022;12.968;2022-09-12T21:52:49;21.10;57.60
15384;DHT22;7790;53.022;12.968;2022-09-12T21:56:49;21.00;57.50
15384;DHT22;7790;53.022;12.968;2022-09-12T22:00:50;21.00;57.50
15384;DHT22;7790;53.022;12.968;2022-09-12T22:04:51;21.00;57.60
15384;DHT22;7790;53.022;12.968;2022-09-12T22:08:52;21.00;57.60
15384;DHT22;7790;53.022;12.968;2022-09-12T22:12:53;21.00;57.50
15384;DHT22;7790;53.022;12.968;2022-09-12T22:16:54;21.00;57.50
15384;DHT22;7790;53.022;12.968;2022-09-12T22:21:02;21.00;57.50
15384;DHT22;7790;53.022;12.968;2022-09-12T22:25:03;21.00;57.50
15384;DHT22;7790;53.022;12.968;2022-09-12T22:29:04;21.00;57.60
15384;DHT22;7790;53.022;12.968;2022-09-12T22:33:05;21.00;57.60
15384;DHT22;7790;53.022;12.968;2022-09-12T22:37:06;21.00;57.50
15384;DHT22;7790;53.022;12.968;2022-09-12T22:41:09;21.00;57.50
15384;DHT22;7790;53.022;12.968;2022-09-12T22:45:10;20.90;57.40
15384;DHT22;7790;53.022;12.968;2022-09-12T22:49:11;20.90;57.40
15384;DHT22;7790;53.022;12.968;2022-09-12T22:53:12;20.90;57.40
15384;DHT22;7790;53.022;12.968;2022-09-12T22:57:13;20.90;57.50
15384;DHT22;7790;53.022;12.968;2022-09-12T23:01:14;20.90;57.50
15384;DHT22;7790;53.022;12.968;2022-09-12T23:05:15;20.90;57.40
15384;DHT22;7790;53.022;12.968;2022-09-12T23:09:16;20.90;57.40
15384;DHT22;7790;53.022;12.968;2022-09-12T23:13:17;20.90;57.40
15384;DHT22;7790;53.022;12.968;2022-09-12T23:17:18;20.90;57.40
15384;DHT22;7790;53.022;12.968;2022-09-12T23:21:20;20.90;57.50
15384;DHT22;7790;53.022;12.968;2022-09-12T23:25:22;20.90;57.50
15384;DHT22;7790;53.022;12.968;2022-09-12T23:29:23;20.90;57.50
15384;DHT22;7790;53.022;12.968;2022-09-12T23:33:24;20.90;57.60
15384;DHT22;7790;53.022;12.968;2022-09-12T23:37:25;20.90;57.50
15384;DHT22;7790;53.022;12.968;2022-09-12T23:41:26;20.90;57.60
15384;DHT22;7790;53.022;12.968;2022-09-12T23:45:27;20.90;57.50
15384;DHT22;7790;53.022;12.968;2022-09-12T23:49:31;20.80;57.40
15384;DHT22;7790;53.022;12.968;2022-09-12T23:53:32;20.80;57.50
15384;DHT22;7790;53.022;12.968;2022-09-12T23:57:35;20.80;57.40
